View Sortable Currents For Network
ASOSAWOSCoCoRaHSCOOPDCPISUSM
SchoolNetOtherSCANMy FavoritesBy StateRWIS
RWIS SurfaceRWIS TrafficRWIS SoilBy NWS WFOUSCRN

Current SCAN Conditions

Sorted by: (Observation Time [local])     Click on a column to sort it.
ADD: Station: Ob Time Temps °F   Wind [knots]  
Air (Hi / Lo) DewP Feels RH% Speed Direction Gust @Time Solar Rad
PlattevilleFeb-20-19 08:00 AM 26(26/21) 25 0 99 000
Rodgers FarmFeb-20-19 02:00 PM 28(28/22) 20 0 75 000
DexterFeb-20-19 02:00 PM 51(51/36) 46 0 82 000
CMRB LTARFeb-20-19 02:00 PM 36(36/28) 31 0 82 000
SpickardFeb-20-19 02:00 PM 33(33/28) 28 0 83 000
SHAGBARK HILLSFeb-20-19 02:00 PM 23(24/17) 17 0 79 000
Eros Data CenterFeb-20-19 02:00 PM 17(21/14) 16 0 94 000
Crescent Lake No1Feb-20-19 02:00 PM 26(26/10) 26 0 99 000
AmesFeb-20-19 02:00 PM 30(30/22) 26 0 88 000
Powell GardensFeb-20-19 02:00 PM 38(38/29) 29 0 71 000
Mt VernonFeb-20-19 02:00 PM 39(39/32) 33 0 81 000
MasonFeb-20-19 02:00 PM 37(37/30) 37 0 99 000
Schell-Osage06:00 PM 36(39/32) 32 0 85 000
Shaw Nature Reserve06:00 PM 41(43/32) 33 0 74 000
Twin Pines Conservation06:00 PM 43(49/33) 35 0 71 000
Mark Twain HS06:00 PM 35(37/29) 30 0 82 000
Journagan Ranch06:00 PM 40(46/32) 33 0 76 000
Carver Farm06:00 PM 37(41/32) 30 0 75 000
Elsberry PMC06:00 PM 38(41/30) 29 0 72 000
Busby Farm06:00 PM 37(40/32) 29 0 74 000


SCAN Soil Conditions

  2 inch 4 inch 8 inch 20 inch 40 inch
Station: Ob Time: Moist:Temp: Moist:Temp: Moist:Temp: Moist:Temp: Moist:Temp:
PlattevilleFeb-20-19 08:00 AM 130 140 160 310 490
Rodgers FarmFeb-20-19 02:00 PM 190 260 420 500 530
DexterFeb-20-19 02:00 PM 350 350 320 360 400
CMRB LTARFeb-20-19 02:00 PM 520 420 430 630 470
SpickardFeb-20-19 02:00 PM 00 200 400 410 500
SHAGBARK HILLSFeb-20-19 02:00 PM 170 150 200 230 380
Eros Data CenterFeb-20-19 02:00 PM 140 170 170 200 350
Crescent Lake No1Feb-20-19 02:00 PM 10 60 90 50 60
AmesFeb-20-19 02:00 PM 150 250 400 500 -1000
Powell GardensFeb-20-19 02:00 PM 390 -1000 590 -1000 410
Mt VernonFeb-20-19 02:00 PM 310 200 270 400 00
MasonFeb-20-19 02:00 PM 130 100 120 160 290
Schell-Osage06:00 PM -1000 410 -1000 580 -1000
Shaw Nature Reserve06:00 PM 400 460 430 530 580
Twin Pines Conservation06:00 PM 220 240 270 170 320
Mark Twain HS06:00 PM 130 180 410 570 540
Journagan Ranch06:00 PM 250 10 350 430 480
Carver Farm06:00 PM 280 400 350 470 580
Elsberry PMC06:00 PM 440 410 400 430 470
Busby Farm06:00 PM 500 340 440 440 460